Terminal Aerodrome Forecast
Issued by NWS Louisville, KY

Home | Current Version | Previous Version | Text Only | Print | Product List | Glossary Off
Versions: 1 2 3 4 5 6 7 8 9 10 11 12 13 14 15 16 17 18

000
FTUS43 KLMK 011100
TAFBWG
TAF
KBWG 011120Z 0112/0212 23005KT 6SM BR FEW035 SCT250
      TEMPO 0112/0113 4SM BR
     FM011300 24005KT P6SM BKN150
     FM011500 25007KT P6SM VCTS BKN040CB=

USA.gov is the U.S. government's official web portal to all federal, state and local government web resources and services.